sensor_id;sensor_type;location;lat;lon;timestamp;P1;durP1;ratioP1;P2;durP2;ratioP2
53207;SDS011;39093;52.788;6.940;2023-08-17T00:01:57;5.57;;;2.17;;
53207;SDS011;39093;52.788;6.940;2023-08-17T00:04:24;9.05;;;2.83;;
53207;SDS011;39093;52.788;6.940;2023-08-17T00:06:52;13.38;;;2.70;;
53207;SDS011;39093;52.788;6.940;2023-08-17T00:09:19;7.75;;;2.65;;
53207;SDS011;39093;52.788;6.940;2023-08-17T00:11:46;7.75;;;3.28;;
53207;SDS011;39093;52.788;6.940;2023-08-17T00:14:12;8.02;;;2.55;;
53207;SDS011;39093;52.788;6.940;2023-08-17T00:16:39;5.85;;;2.25;;
53207;SDS011;39093;52.788;6.940;2023-08-17T00:19:07;5.50;;;2.60;;
53207;SDS011;39093;52.788;6.940;2023-08-17T00:21:34;7.60;;;2.40;;
53207;SDS011;39093;52.788;6.940;2023-08-17T00:24:02;8.07;;;2.70;;
53207;SDS011;39093;52.788;6.940;2023-08-17T00:26:29;8.77;;;3.20;;
53207;SDS011;39093;52.788;6.940;2023-08-17T00:29:05;7.13;;;2.58;;
53207;SDS011;39093;52.788;6.940;2023-08-17T00:31:32;6.32;;;2.03;;
53207;SDS011;39093;52.788;6.940;2023-08-17T00:33:59;10.27;;;2.65;;
53207;SDS011;39093;52.788;6.940;2023-08-17T00:36:26;4.40;;;1.88;;
53207;SDS011;39093;52.788;6.940;2023-08-17T00:38:53;6.43;;;2.20;;
53207;SDS011;39093;52.788;6.940;2023-08-17T00:41:20;8.40;;;2.50;;
53207;SDS011;39093;52.788;6.940;2023-08-17T00:43:49;10.25;;;2.33;;
53207;SDS011;39093;52.788;6.940;2023-08-17T00:46:16;8.20;;;2.33;;
53207;SDS011;39093;52.788;6.940;2023-08-17T00:48:43;8.18;;;3.33;;
53207;SDS011;39093;52.788;6.940;2023-08-17T00:51:10;13.80;;;3.97;;
53207;SDS011;39093;52.788;6.940;2023-08-17T00:53:37;8.35;;;3.22;;
53207;SDS011;39093;52.788;6.940;2023-08-17T00:56:04;8.60;;;2.50;;
53207;SDS011;39093;52.788;6.940;2023-08-17T00:58:32;9.18;;;3.75;;
53207;SDS011;39093;52.788;6.940;2023-08-17T01:00:59;6.70;;;2.88;;
53207;SDS011;39093;52.788;6.940;2023-08-17T01:03:27;9.88;;;2.70;;
53207;SDS011;39093;52.788;6.940;2023-08-17T01:05:58;11.57;;;2.78;;
53207;SDS011;39093;52.788;6.940;2023-08-17T01:08:25;6.18;;;2.72;;
53207;SDS011;39093;52.788;6.940;2023-08-17T01:11:13;8.45;;;2.70;;
53207;SDS011;39093;52.788;6.940;2023-08-17T01:16:28;8.25;;;2.35;;
53207;SDS011;39093;52.788;6.940;2023-08-17T01:18:59;9.00;;;2.43;;
53207;SDS011;39093;52.788;6.940;2023-08-17T01:21:35;6.78;;;2.30;;
53207;SDS011;39093;52.788;6.940;2023-08-17T01:24:13;6.00;;;2.28;;
53207;SDS011;39093;52.788;6.940;2023-08-17T01:26:42;6.90;;;2.22;;
53207;SDS011;39093;52.788;6.940;2023-08-17T01:29:09;8.77;;;2.90;;
53207;SDS011;39093;52.788;6.940;2023-08-17T01:31:39;10.32;;;2.65;;
53207;SDS011;39093;52.788;6.940;2023-08-17T01:34:14;6.68;;;1.98;;
53207;SDS011;39093;52.788;6.940;2023-08-17T01:36:50;10.45;;;2.17;;
53207;SDS011;39093;52.788;6.940;2023-08-17T01:39:24;7.32;;;2.72;;
53207;SDS011;39093;52.788;6.940;2023-08-17T01:41:55;5.32;;;2.20;;
53207;SDS011;39093;52.788;6.940;2023-08-17T01:44:24;5.40;;;2.42;;
53207;SDS011;39093;52.788;6.940;2023-08-17T01:46:52;9.05;;;2.40;;
53207;SDS011;39093;52.788;6.940;2023-08-17T01:49:19;7.88;;;2.67;;
53207;SDS011;39093;52.788;6.940;2023-08-17T01:51:46;8.50;;;2.65;;
53207;SDS011;39093;52.788;6.940;2023-08-17T01:54:15;5.13;;;2.40;;
53207;SDS011;39093;52.788;6.940;2023-08-17T01:56:42;8.90;;;2.70;;
53207;SDS011;39093;52.788;6.940;2023-08-17T01:59:09;9.82;;;2.50;;
53207;SDS011;39093;52.788;6.940;2023-08-17T02:01:36;7.63;;;2.50;;
53207;SDS011;39093;52.788;6.940;2023-08-17T02:04:03;10.10;;;2.60;;
53207;SDS011;39093;52.788;6.940;2023-08-17T02:06:31;6.20;;;2.30;;
53207;SDS011;39093;52.788;6.940;2023-08-17T02:08:58;7.10;;;2.15;;
53207;SDS011;39093;52.788;6.940;2023-08-17T02:11:28;8.85;;;2.60;;
53207;SDS011;39093;52.788;6.940;2023-08-17T02:13:55;6.57;;;2.17;;
53207;SDS011;39093;52.788;6.940;2023-08-17T02:16:21;9.38;;;3.22;;
53207;SDS011;39093;52.788;6.940;2023-08-17T02:18:48;9.07;;;2.22;;
53207;SDS011;39093;52.788;6.940;2023-08-17T02:21:15;7.93;;;2.40;;
53207;SDS011;39093;52.788;6.940;2023-08-17T02:23:42;6.47;;;2.50;;
53207;SDS011;39093;52.788;6.940;2023-08-17T02:26:09;7.65;;;2.78;;
53207;SDS011;39093;52.788;6.940;2023-08-17T02:28:36;8.15;;;2.45;;
53207;SDS011;39093;52.788;6.940;2023-08-17T02:31:03;8.95;;;2.72;;
53207;SDS011;39093;52.788;6.940;2023-08-17T02:33:30;5.40;;;2.40;;
53207;SDS011;39093;52.788;6.940;2023-08-17T02:35:58;8.93;;;2.65;;
53207;SDS011;39093;52.788;6.940;2023-08-17T02:38:27;6.25;;;2.20;;
53207;SDS011;39093;52.788;6.940;2023-08-17T02:40:54;5.18;;;2.70;;
53207;SDS011;39093;52.788;6.940;2023-08-17T02:43:21;7.25;;;2.70;;
53207;SDS011;39093;52.788;6.940;2023-08-17T02:45:48;7.82;;;2.08;;
53207;SDS011;39093;52.788;6.940;2023-08-17T02:48:15;5.45;;;2.20;;
53207;SDS011;39093;52.788;6.940;2023-08-17T02:50:42;10.18;;;2.08;;
53207;SDS011;39093;52.788;6.940;2023-08-17T02:53:09;3.72;;;2.10;;
53207;SDS011;39093;52.788;6.940;2023-08-17T02:55:36;11.73;;;2.33;;
53207;SDS011;39093;52.788;6.940;2023-08-17T02:58:03;6.72;;;2.10;;
53207;SDS011;39093;52.788;6.940;2023-08-17T03:00:29;9.38;;;2.70;;
53207;SDS011;39093;52.788;6.940;2023-08-17T03:02:56;5.88;;;2.22;;
53207;SDS011;39093;52.788;6.940;2023-08-17T03:05:23;7.13;;;2.35;;
53207;SDS011;39093;52.788;6.940;2023-08-17T03:07:50;5.90;;;2.05;;
53207;SDS011;39093;52.788;6.940;2023-08-17T03:10:17;9.90;;;2.30;;
53207;SDS011;39093;52.788;6.940;2023-08-17T03:12:45;6.00;;;2.28;;
53207;SDS011;39093;52.788;6.940;2023-08-17T03:15:11;6.15;;;2.40;;
53207;SDS011;39093;52.788;6.940;2023-08-17T03:17:38;8.18;;;2.40;;
53207;SDS011;39093;52.788;6.940;2023-08-17T03:20:05;7.05;;;2.35;;
53207;SDS011;39093;52.788;6.940;2023-08-17T03:22:33;8.43;;;2.28;;
53207;SDS011;39093;52.788;6.940;2023-08-17T03:25:00;4.82;;;2.10;;
53207;SDS011;39093;52.788;6.940;2023-08-17T03:27:29;9.88;;;2.80;;
53207;SDS011;39093;52.788;6.940;2023-08-17T03:29:56;9.63;;;2.38;;
53207;SDS011;39093;52.788;6.940;2023-08-17T03:32:23;6.30;;;2.45;;
53207;SDS011;39093;52.788;6.940;2023-08-17T03:34:49;6.82;;;2.33;;
53207;SDS011;39093;52.788;6.940;2023-08-17T03:37:16;5.60;;;2.55;;
53207;SDS011;39093;52.788;6.940;2023-08-17T03:39:43;10.13;;;2.90;;
53207;SDS011;39093;52.788;6.940;2023-08-17T03:42:10;7.53;;;2.58;;
53207;SDS011;39093;52.788;6.940;2023-08-17T03:44:37;10.52;;;3.63;;
53207;SDS011;39093;52.788;6.940;2023-08-17T03:47:04;7.22;;;2.30;;
53207;SDS011;39093;52.788;6.940;2023-08-17T03:49:31;5.00;;;2.97;;
53207;SDS011;39093;52.788;6.940;2023-08-17T03:51:58;7.15;;;2.72;;
53207;SDS011;39093;52.788;6.940;2023-08-17T03:54:25;6.93;;;3.05;;
53207;SDS011;39093;52.788;6.940;2023-08-17T03:56:52;7.78;;;2.95;;
53207;SDS011;39093;52.788;6.940;2023-08-17T03:59:18;6.70;;;2.75;;
53207;SDS011;39093;52.788;6.940;2023-08-17T04:01:45;9.93;;;3.20;;
53207;SDS011;39093;52.788;6.940;2023-08-17T04:04:13;6.75;;;3.03;;
53207;SDS011;39093;52.788;6.940;2023-08-17T04:06:42;6.32;;;2.70;;
53207;SDS011;39093;52.788;6.940;2023-08-17T04:09:09;6.10;;;2.40;;
53207;SDS011;39093;52.788;6.940;2023-08-17T04:11:36;8.65;;;3.08;;
53207;SDS011;39093;52.788;6.940;2023-08-17T04:14:03;9.77;;;3.55;;
53207;SDS011;39093;52.788;6.940;2023-08-17T04:16:31;6.20;;;2.53;;
53207;SDS011;39093;52.788;6.940;2023-08-17T04:18:59;6.25;;;2.78;;
53207;SDS011;39093;52.788;6.940;2023-08-17T04:21:26;8.65;;;3.30;;
53207;SDS011;39093;52.788;6.940;2023-08-17T04:23:54;6.25;;;3.15;;
53207;SDS011;39093;52.788;6.940;2023-08-17T04:26:21;8.65;;;3.22;;
53207;SDS011;39093;52.788;6.940;2023-08-17T04:28:47;5.45;;;2.97;;
53207;SDS011;39093;52.788;6.940;2023-08-17T04:31:14;10.48;;;3.60;;
53207;SDS011;39093;52.788;6.940;2023-08-17T04:33:43;5.32;;;3.00;;
53207;SDS011;39093;52.788;6.940;2023-08-17T04:36:10;14.60;;;3.53;;
53207;SDS011;39093;52.788;6.940;2023-08-17T04:38:37;5.50;;;3.28;;
53207;SDS011;39093;52.788;6.940;2023-08-17T04:41:05;11.07;;;3.40;;
53207;SDS011;39093;52.788;6.940;2023-08-17T04:43:32;8.43;;;3.58;;
53207;SDS011;39093;52.788;6.940;2023-08-17T04:45:59;10.70;;;3.45;;
53207;SDS011;39093;52.788;6.940;2023-08-17T04:48:26;9.30;;;2.90;;
53207;SDS011;39093;52.788;6.940;2023-08-17T04:50:53;12.63;;;3.08;;
53207;SDS011;39093;52.788;6.940;2023-08-17T04:53:20;7.18;;;3.00;;
53207;SDS011;39093;52.788;6.940;2023-08-17T04:55:47;11.40;;;3.63;;
53207;SDS011;39093;52.788;6.940;2023-08-17T04:58:14;10.57;;;2.88;;
53207;SDS011;39093;52.788;6.940;2023-08-17T05:00:40;8.52;;;3.25;;
53207;SDS011;39093;52.788;6.940;2023-08-17T05:03:08;9.30;;;3.33;;
53207;SDS011;39093;52.788;6.940;2023-08-17T05:05:49;7.10;;;3.05;;
53207;SDS011;39093;52.788;6.940;2023-08-17T05:08:17;10.27;;;3.15;;
53207;SDS011;39093;52.788;6.940;2023-08-17T05:10:45;9.07;;;3.15;;
53207;SDS011;39093;52.788;6.940;2023-08-17T05:13:11;9.40;;;3.60;;
53207;SDS011;39093;52.788;6.940;2023-08-17T05:15:38;14.25;;;3.85;;
53207;SDS011;39093;52.788;6.940;2023-08-17T05:18:05;8.77;;;3.03;;
53207;SDS011;39093;52.788;6.940;2023-08-17T05:20:32;9.02;;;3.17;;
53207;SDS011;39093;52.788;6.940;2023-08-17T05:22:59;7.32;;;2.90;;
53207;SDS011;39093;52.788;6.940;2023-08-17T05:25:26;12.68;;;3.92;;
53207;SDS011;39093;52.788;6.940;2023-08-17T05:27:54;10.73;;;3.25;;
53207;SDS011;39093;52.788;6.940;2023-08-17T05:30:21;6.97;;;2.47;;
53207;SDS011;39093;52.788;6.940;2023-08-17T05:32:48;5.93;;;2.72;;
53207;SDS011;39093;52.788;6.940;2023-08-17T05:35:15;6.43;;;2.65;;
53207;SDS011;39093;52.788;6.940;2023-08-17T05:37:42;11.68;;;2.92;;
53207;SDS011;39093;52.788;6.940;2023-08-17T05:40:09;7.28;;;2.88;;
53207;SDS011;39093;52.788;6.940;2023-08-17T05:42:38;8.77;;;2.33;;
53207;SDS011;39093;52.788;6.940;2023-08-17T05:45:05;9.88;;;2.90;;
53207;SDS011;39093;52.788;6.940;2023-08-17T05:47:32;8.77;;;2.80;;
53207;SDS011;39093;52.788;6.940;2023-08-17T05:49:59;7.63;;;2.47;;
53207;SDS011;39093;52.788;6.940;2023-08-17T05:52:26;9.32;;;3.50;;
53207;SDS011;39093;52.788;6.940;2023-08-17T05:54:53;6.43;;;2.50;;
53207;SDS011;39093;52.788;6.940;2023-08-17T05:57:20;9.75;;;2.80;;
53207;SDS011;39093;52.788;6.940;2023-08-17T05:59:47;9.57;;;3.10;;
53207;SDS011;39093;52.788;6.940;2023-08-17T06:02:14;9.68;;;2.60;;
53207;SDS011;39093;52.788;6.940;2023-08-17T06:04:41;12.93;;;3.20;;
53207;SDS011;39093;52.788;6.940;2023-08-17T06:07:08;10.43;;;2.75;;
53207;SDS011;39093;52.788;6.940;2023-08-17T06:09:37;9.30;;;1.95;;
53207;SDS011;39093;52.788;6.940;2023-08-17T06:12:04;9.77;;;2.60;;
53207;SDS011;39093;52.788;6.940;2023-08-17T06:14:34;11.45;;;2.22;;
53207;SDS011;39093;52.788;6.940;2023-08-17T06:17:01;7.03;;;2.25;;
53207;SDS011;39093;52.788;6.940;2023-08-17T06:19:31;9.75;;;2.22;;
53207;SDS011;39093;52.788;6.940;2023-08-17T06:21:59;10.27;;;2.60;;
53207;SDS011;39093;52.788;6.940;2023-08-17T06:24:26;9.02;;;2.00;;
53207;SDS011;39093;52.788;6.940;2023-08-17T06:26:53;9.00;;;1.85;;
53207;SDS011;39093;52.788;6.940;2023-08-17T06:29:20;6.07;;;1.83;;
53207;SDS011;39093;52.788;6.940;2023-08-17T06:31:49;8.32;;;2.05;;
53207;SDS011;39093;52.788;6.940;2023-08-17T06:34:16;4.18;;;1.60;;
53207;SDS011;39093;52.788;6.940;2023-08-17T06:36:43;10.68;;;3.45;;
53207;SDS011;39093;52.788;6.940;2023-08-17T06:39:26;7.72;;;1.98;;
53207;SDS011;39093;52.788;6.940;2023-08-17T06:41:53;5.95;;;1.98;;
53207;SDS011;39093;52.788;6.940;2023-08-17T06:44:21;8.35;;;2.42;;
53207;SDS011;39093;52.788;6.940;2023-08-17T06:46:48;5.93;;;1.40;;
53207;SDS011;39093;52.788;6.940;2023-08-17T06:49:14;4.88;;;1.30;;
53207;SDS011;39093;52.788;6.940;2023-08-17T06:51:42;6.20;;;1.60;;
53207;SDS011;39093;52.788;6.940;2023-08-17T06:54:09;6.60;;;2.35;;
53207;SDS011;39093;52.788;6.940;2023-08-17T06:56:38;6.57;;;1.92;;
53207;SDS011;39093;52.788;6.940;2023-08-17T06:59:05;10.68;;;1.90;;
53207;SDS011;39093;52.788;6.940;2023-08-17T07:01:33;3.72;;;1.48;;
53207;SDS011;39093;52.788;6.940;2023-08-17T07:04:00;8.88;;;1.67;;
53207;SDS011;39093;52.788;6.940;2023-08-17T07:06:27;10.20;;;2.05;;
53207;SDS011;39093;52.788;6.940;2023-08-17T07:08:55;6.18;;;1.70;;
53207;SDS011;39093;52.788;6.940;2023-08-17T07:11:23;4.60;;;1.60;;
53207;SDS011;39093;52.788;6.940;2023-08-17T07:13:50;8.95;;;2.00;;
53207;SDS011;39093;52.788;6.940;2023-08-17T07:16:17;5.97;;;1.70;;
53207;SDS011;39093;52.788;6.940;2023-08-17T07:18:44;6.30;;;1.58;;
53207;SDS011;39093;52.788;6.940;2023-08-17T07:21:11;12.10;;;1.98;;
53207;SDS011;39093;52.788;6.940;2023-08-17T07:23:38;4.28;;;1.60;;
53207;SDS011;39093;52.788;6.940;2023-08-17T07:26:05;4.88;;;1.88;;
53207;SDS011;39093;52.788;6.940;2023-08-17T07:28:32;4.82;;;1.42;;
53207;SDS011;39093;52.788;6.940;2023-08-17T07:30:59;7.05;;;1.70;;
53207;SDS011;39093;52.788;6.940;2023-08-17T07:33:26;10.32;;;1.90;;
53207;SDS011;39093;52.788;6.940;2023-08-17T07:35:53;4.53;;;1.40;;
53207;SDS011;39093;52.788;6.940;2023-08-17T07:38:22;5.93;;;1.55;;
53207;SDS011;39093;52.788;6.940;2023-08-17T07:40:49;5.10;;;1.30;;
53207;SDS011;39093;52.788;6.940;2023-08-17T07:43:18;4.63;;;1.45;;
53207;SDS011;39093;52.788;6.940;2023-08-17T07:45:45;4.38;;;1.67;;
53207;SDS011;39093;52.788;6.940;2023-08-17T07:48:18;4.38;;;1.40;;
53207;SDS011;39093;52.788;6.940;2023-08-17T07:53:19;5.32;;;2.03;;
53207;SDS011;39093;52.788;6.940;2023-08-17T07:55:46;6.30;;;1.40;;
53207;SDS011;39093;52.788;6.940;2023-08-17T07:58:15;5.47;;;1.45;;
53207;SDS011;39093;52.788;6.940;2023-08-17T08:00:42;10.82;;;1.65;;
53207;SDS011;39093;52.788;6.940;2023-08-17T08:03:13;8.27;;;1.85;;
53207;SDS011;39093;52.788;6.940;2023-08-17T08:05:41;12.48;;;2.30;;
53207;SDS011;39093;52.788;6.940;2023-08-17T08:08:10;4.53;;;1.45;;
53207;SDS011;39093;52.788;6.940;2023-08-17T08:10:37;6.80;;;1.75;;
53207;SDS011;39093;52.788;6.940;2023-08-17T08:13:04;6.43;;;1.60;;
53207;SDS011;39093;52.788;6.940;2023-08-17T08:15:32;6.63;;;1.75;;
53207;SDS011;39093;52.788;6.940;2023-08-17T08:18:03;8.70;;;1.70;;
53207;SDS011;39093;52.788;6.940;2023-08-17T08:20:30;3.55;;;1.40;;
53207;SDS011;39093;52.788;6.940;2023-08-17T08:23:00;5.60;;;1.80;;
53207;SDS011;39093;52.788;6.940;2023-08-17T08:25:26;5.25;;;1.48;;
53207;SDS011;39093;52.788;6.940;2023-08-17T08:27:53;5.55;;;1.52;;
53207;SDS011;39093;52.788;6.940;2023-08-17T08:30:23;3.58;;;1.27;;
53207;SDS011;39093;52.788;6.940;2023-08-17T08:32:50;3.63;;;1.52;;
53207;SDS011;39093;52.788;6.940;2023-08-17T08:35:21;5.55;;;1.25;;
53207;SDS011;39093;52.788;6.940;2023-08-17T08:37:53;4.07;;;1.50;;
53207;SDS011;39093;52.788;6.940;2023-08-17T08:40:26;6.53;;;1.58;;
53207;SDS011;39093;52.788;6.940;2023-08-17T08:42:57;4.38;;;1.50;;
53207;SDS011;39093;52.788;6.940;2023-08-17T08:45:25;6.18;;;1.35;;
53207;SDS011;39093;52.788;6.940;2023-08-17T08:47:56;4.05;;;1.25;;
53207;SDS011;39093;52.788;6.940;2023-08-17T08:50:31;5.75;;;1.52;;
53207;SDS011;39093;52.788;6.940;2023-08-17T08:53:00;5.15;;;1.60;;
53207;SDS011;39093;52.788;6.940;2023-08-17T08:58:03;7.28;;;2.60;;
53207;SDS011;39093;52.788;6.940;2023-08-17T09:00:32;5.88;;;1.70;;
53207;SDS011;39093;52.788;6.940;2023-08-17T09:03:02;4.00;;;1.27;;
53207;SDS011;39093;52.788;6.940;2023-08-17T09:05:31;7.70;;;1.60;;
53207;SDS011;39093;52.788;6.940;2023-08-17T09:08:01;3.50;;;1.17;;
53207;SDS011;39093;52.788;6.940;2023-08-17T09:10:30;5.53;;;1.60;;
53207;SDS011;39093;52.788;6.940;2023-08-17T09:13:04;4.95;;;1.30;;
53207;SDS011;39093;52.788;6.940;2023-08-17T09:15:31;5.53;;;2.00;;
53207;SDS011;39093;52.788;6.940;2023-08-17T09:17:58;3.90;;;1.40;;
53207;SDS011;39093;52.788;6.940;2023-08-17T09:23:18;5.40;;;1.58;;
53207;SDS011;39093;52.788;6.940;2023-08-17T09:25:49;4.30;;;1.30;;
53207;SDS011;39093;52.788;6.940;2023-08-17T09:28:19;4.95;;;1.35;;
53207;SDS011;39093;52.788;6.940;2023-08-17T09:30:58;4.15;;;1.30;;
53207;SDS011;39093;52.788;6.940;2023-08-17T09:33:28;5.15;;;1.77;;
53207;SDS011;39093;52.788;6.940;2023-08-17T09:35:57;9.18;;;1.92;;
53207;SDS011;39093;52.788;6.940;2023-08-17T09:38:26;3.90;;;1.48;;
53207;SDS011;39093;52.788;6.940;2023-08-17T09:40:54;4.20;;;1.30;;
53207;SDS011;39093;52.788;6.940;2023-08-17T09:43:21;5.05;;;1.75;;
53207;SDS011;39093;52.788;6.940;2023-08-17T09:45:48;11.18;;;1.88;;
53207;SDS011;39093;52.788;6.940;2023-08-17T09:48:19;5.07;;;1.92;;
53207;SDS011;39093;52.788;6.940;2023-08-17T09:50:47;5.05;;;1.48;;
53207;SDS011;39093;52.788;6.940;2023-08-17T09:53:15;5.75;;;2.17;;
53207;SDS011;39093;52.788;6.940;2023-08-17T09:55:44;5.90;;;1.85;;
53207;SDS011;39093;52.788;6.940;2023-08-17T09:58:12;4.72;;;1.83;;
53207;SDS011;39093;52.788;6.940;2023-08-17T10:00:45;5.70;;;2.25;;
53207;SDS011;39093;52.788;6.940;2023-08-17T10:03:17;3.95;;;1.88;;
53207;SDS011;39093;52.788;6.940;2023-08-17T10:05:47;6.63;;;2.00;;
53207;SDS011;39093;52.788;6.940;2023-08-17T10:08:28;8.15;;;2.42;;
53207;SDS011;39093;52.788;6.940;2023-08-17T10:10:57;7.03;;;2.08;;
53207;SDS011;39093;52.788;6.940;2023-08-17T10:13:37;4.38;;;2.00;;
53207;SDS011;39093;52.788;6.940;2023-08-17T10:16:23;4.45;;;1.73;;
53207;SDS011;39093;52.788;6.940;2023-08-17T10:19:05;4.95;;;1.83;;
53207;SDS011;39093;52.788;6.940;2023-08-17T10:21:55;7.65;;;2.55;;
53207;SDS011;39093;52.788;6.940;2023-08-17T10:24:34;8.88;;;2.20;;
53207;SDS011;39093;52.788;6.940;2023-08-17T10:27:07;7.03;;;2.40;;
53207;SDS011;39093;52.788;6.940;2023-08-17T10:29:38;5.50;;;2.25;;
53207;SDS011;39093;52.788;6.940;2023-08-17T10:32:07;3.65;;;2.13;;
53207;SDS011;39093;52.788;6.940;2023-08-17T10:34:37;5.25;;;3.22;;
53207;SDS011;39093;52.788;6.940;2023-08-17T10:37:05;3.40;;;1.98;;
53207;SDS011;39093;52.788;6.940;2023-08-17T10:39:33;6.15;;;2.47;;
53207;SDS011;39093;52.788;6.940;2023-08-17T10:42:01;4.72;;;2.35;;
53207;SDS011;39093;52.788;6.940;2023-08-17T10:44:47;4.90;;;2.15;;
53207;SDS011;39093;52.788;6.940;2023-08-17T10:49:59;9.00;;;3.17;;
53207;SDS011;39093;52.788;6.940;2023-08-17T10:52:29;8.15;;;2.83;;
53207;SDS011;39093;52.788;6.940;2023-08-17T10:54:59;4.90;;;2.30;;
53207;SDS011;39093;52.788;6.940;2023-08-17T10:57:31;6.25;;;2.85;;
53207;SDS011;39093;52.788;6.940;2023-08-17T11:05:42;7.50;;;2.73;;
53207;SDS011;39093;52.788;6.940;2023-08-17T11:13:28;4.05;;;2.50;;
53207;SDS011;39093;52.788;6.940;2023-08-17T11:15:58;6.75;;;2.72;;
53207;SDS011;39093;52.788;6.940;2023-08-17T11:18:29;5.13;;;3.27;;
53207;SDS011;39093;52.788;6.940;2023-08-17T11:21:01;7.60;;;2.95;;
53207;SDS011;39093;52.788;6.940;2023-08-17T11:23:33;4.13;;;2.65;;
53207;SDS011;39093;52.788;6.940;2023-08-17T11:26:01;5.68;;;2.50;;
53207;SDS011;39093;52.788;6.940;2023-08-17T11:28:31;6.53;;;3.35;;
53207;SDS011;39093;52.788;6.940;2023-08-17T11:31:09;4.65;;;2.50;;
53207;SDS011;39093;52.788;6.940;2023-08-17T11:33:37;6.40;;;3.17;;
53207;SDS011;39093;52.788;6.940;2023-08-17T11:36:06;7.32;;;2.78;;
53207;SDS011;39093;52.788;6.940;2023-08-17T11:38:38;6.45;;;3.72;;
53207;SDS011;39093;52.788;6.940;2023-08-17T11:41:07;5.72;;;2.58;;
53207;SDS011;39093;52.788;6.940;2023-08-17T11:43:44;5.45;;;2.97;;
53207;SDS011;39093;52.788;6.940;2023-08-17T11:46:12;3.72;;;2.60;;
53207;SDS011;39093;52.788;6.940;2023-08-17T11:48:41;5.80;;;2.80;;
53207;SDS011;39093;52.788;6.940;2023-08-17T11:51:08;7.13;;;3.13;;
53207;SDS011;39093;52.788;6.940;2023-08-17T11:53:35;4.63;;;2.80;;
53207;SDS011;39093;52.788;6.940;2023-08-17T11:56:06;6.43;;;2.80;;
53207;SDS011;39093;52.788;6.940;2023-08-17T11:58:42;4.78;;;3.30;;
53207;SDS011;39093;52.788;6.940;2023-08-17T12:01:12;7.47;;;3.00;;
53207;SDS011;39093;52.788;6.940;2023-08-17T12:03:40;4.30;;;2.95;;
53207;SDS011;39093;52.788;6.940;2023-08-17T12:06:09;7.00;;;3.20;;
53207;SDS011;39093;52.788;6.940;2023-08-17T12:08:36;6.88;;;3.67;;
53207;SDS011;39093;52.788;6.940;2023-08-17T12:11:03;4.45;;;2.90;;
53207;SDS011;39093;52.788;6.940;2023-08-17T12:13:34;5.22;;;3.20;;
53207;SDS011;39093;52.788;6.940;2023-08-17T12:16:01;7.63;;;3.40;;
53207;SDS011;39093;52.788;6.940;2023-08-17T12:18:33;8.18;;;3.40;;
53207;SDS011;39093;52.788;6.940;2023-08-17T12:21:00;6.60;;;2.70;;
53207;SDS011;39093;52.788;6.940;2023-08-17T12:23:28;5.07;;;3.13;;
53207;SDS011;39093;52.788;6.940;2023-08-17T12:25:56;5.57;;;3.20;;
53207;SDS011;39093;52.788;6.940;2023-08-17T12:28:23;7.25;;;3.15;;
53207;SDS011;39093;52.788;6.940;2023-08-17T12:31:00;5.35;;;3.05;;
53207;SDS011;39093;52.788;6.940;2023-08-17T12:33:29;9.88;;;3.35;;
53207;SDS011;39093;52.788;6.940;2023-08-17T12:35:58;6.72;;;3.10;;
53207;SDS011;39093;52.788;6.940;2023-08-17T12:38:25;4.80;;;2.97;;
53207;SDS011;39093;52.788;6.940;2023-08-17T12:40:53;5.53;;;3.20;;
53207;SDS011;39093;52.788;6.940;2023-08-17T12:43:20;5.18;;;2.67;;
53207;SDS011;39093;52.788;6.940;2023-08-17T12:45:50;4.05;;;3.28;;
53207;SDS011;39093;52.788;6.940;2023-08-17T12:48:17;3.58;;;3.25;;
53207;SDS011;39093;52.788;6.940;2023-08-17T12:50:44;6.68;;;3.00;;
53207;SDS011;39093;52.788;6.940;2023-08-17T12:53:11;7.10;;;3.28;;
53207;SDS011;39093;52.788;6.940;2023-08-17T12:55:40;3.63;;;2.72;;
53207;SDS011;39093;52.788;6.940;2023-08-17T12:58:08;6.82;;;3.17;;
53207;SDS011;39093;52.788;6.940;2023-08-17T13:00:36;5.82;;;3.88;;
53207;SDS011;39093;52.788;6.940;2023-08-17T13:03:03;9.30;;;3.72;;
53207;SDS011;39093;52.788;6.940;2023-08-17T13:05:31;6.82;;;3.67;;
53207;SDS011;39093;52.788;6.940;2023-08-17T13:07:58;6.45;;;3.78;;
53207;SDS011;39093;52.788;6.940;2023-08-17T13:10:26;6.97;;;3.75;;
53207;SDS011;39093;52.788;6.940;2023-08-17T13:12:53;6.03;;;4.10;;
53207;SDS011;39093;52.788;6.940;2023-08-17T13:15:22;5.55;;;3.35;;
53207;SDS011;39093;52.788;6.940;2023-08-17T13:17:49;7.05;;;3.75;;
53207;SDS011;39093;52.788;6.940;2023-08-17T13:20:16;6.10;;;3.53;;
53207;SDS011;39093;52.788;6.940;2023-08-17T13:22:43;6.38;;;3.92;;
53207;SDS011;39093;52.788;6.940;2023-08-17T13:25:10;5.93;;;3.35;;
53207;SDS011;39093;52.788;6.940;2023-08-17T13:27:37;6.05;;;4.10;;
53207;SDS011;39093;52.788;6.940;2023-08-17T13:30:04;5.57;;;3.80;;
53207;SDS011;39093;52.788;6.940;2023-08-17T13:32:32;4.47;;;3.67;;
53207;SDS011;39093;52.788;6.940;2023-08-17T13:35:00;7.72;;;3.53;;
53207;SDS011;39093;52.788;6.940;2023-08-17T13:37:28;7.63;;;3.65;;
53207;SDS011;39093;52.788;6.940;2023-08-17T13:39:56;7.88;;;3.15;;
53207;SDS011;39093;52.788;6.940;2023-08-17T13:42:24;4.68;;;3.47;;
53207;SDS011;39093;52.788;6.940;2023-08-17T13:44:52;5.00;;;3.30;;
53207;SDS011;39093;52.788;6.940;2023-08-17T13:47:19;3.33;;;2.90;;
53207;SDS011;39093;52.788;6.940;2023-08-17T13:49:46;5.28;;;3.15;;
53207;SDS011;39093;52.788;6.940;2023-08-17T13:52:12;5.53;;;3.25;;
53207;SDS011;39093;52.788;6.940;2023-08-17T13:54:39;6.15;;;2.92;;
53207;SDS011;39093;52.788;6.940;2023-08-17T13:57:06;4.60;;;3.05;;
53207;SDS011;39093;52.788;6.940;2023-08-17T13:59:33;4.78;;;3.05;;
53207;SDS011;39093;52.788;6.940;2023-08-17T14:02:03;3.75;;;3.10;;
53207;SDS011;39093;52.788;6.940;2023-08-17T14:04:31;6.20;;;3.58;;
53207;SDS011;39093;52.788;6.940;2023-08-17T14:06:58;3.90;;;3.35;;
53207;SDS011;39093;52.788;6.940;2023-08-17T14:09:24;5.40;;;3.40;;
53207;SDS011;39093;52.788;6.940;2023-08-17T14:11:52;3.70;;;3.28;;
53207;SDS011;39093;52.788;6.940;2023-08-17T14:14:19;4.68;;;3.40;;
53207;SDS011;39093;52.788;6.940;2023-08-17T14:16:49;5.00;;;3.13;;
53207;SDS011;39093;52.788;6.940;2023-08-17T14:19:16;6.38;;;3.40;;
53207;SDS011;39093;52.788;6.940;2023-08-17T14:21:42;6.60;;;4.07;;
53207;SDS011;39093;52.788;6.940;2023-08-17T14:24:09;3.88;;;3.53;;
53207;SDS011;39093;52.788;6.940;2023-08-17T14:26:37;6.53;;;3.65;;
53207;SDS011;39093;52.788;6.940;2023-08-17T14:29:04;5.53;;;3.33;;
53207;SDS011;39093;52.788;6.940;2023-08-17T14:31:31;4.32;;;3.10;;
53207;SDS011;39093;52.788;6.940;2023-08-17T14:33:58;6.20;;;3.70;;
53207;SDS011;39093;52.788;6.940;2023-08-17T14:36:24;4.35;;;3.22;;
53207;SDS011;39093;52.788;6.940;2023-08-17T14:38:51;5.78;;;3.17;;
53207;SDS011;39093;52.788;6.940;2023-08-17T14:41:18;4.78;;;2.70;;
53207;SDS011;39093;52.788;6.940;2023-08-17T14:43:45;8.15;;;3.45;;
53207;SDS011;39093;52.788;6.940;2023-08-17T14:46:12;5.93;;;4.10;;
53207;SDS011;39093;52.788;6.940;2023-08-17T14:48:41;5.25;;;3.83;;
53207;SDS011;39093;52.788;6.940;2023-08-17T14:51:08;4.57;;;3.90;;
53207;SDS011;39093;52.788;6.940;2023-08-17T14:53:35;6.95;;;3.60;;
53207;SDS011;39093;52.788;6.940;2023-08-17T14:56:05;5.22;;;3.47;;
53207;SDS011;39093;52.788;6.940;2023-08-17T14:58:32;5.85;;;3.80;;
53207;SDS011;39093;52.788;6.940;2023-08-17T15:00:59;6.65;;;4.03;;
53207;SDS011;39093;52.788;6.940;2023-08-17T15:03:27;11.32;;;4.35;;
53207;SDS011;39093;52.788;6.940;2023-08-17T15:05:54;4.70;;;3.45;;
53207;SDS011;39093;52.788;6.940;2023-08-17T15:08:21;4.68;;;3.45;;
53207;SDS011;39093;52.788;6.940;2023-08-17T15:10:48;5.88;;;2.90;;
53207;SDS011;39093;52.788;6.940;2023-08-17T15:13:15;5.72;;;3.60;;
53207;SDS011;39093;52.788;6.940;2023-08-17T15:15:44;8.32;;;4.47;;
53207;SDS011;39093;52.788;6.940;2023-08-17T15:18:11;4.95;;;3.15;;